sensor_id;sensor_type;location;lat;lon;timestamp;temperature;humidity
11501;DHT22;5807;51.606;7.624;2022-12-28T03:14:29;6.60;99.90
11501;DHT22;5807;51.606;7.624;2022-12-28T03:17:01;6.80;99.90
11501;DHT22;5807;51.606;7.624;2022-12-28T03:19:49;7.50;99.90
11501;DHT22;5807;51.606;7.624;2022-12-28T03:22:36;7.40;99.90
11501;DHT22;5807;51.606;7.624;2022-12-28T03:28:11;7.00;99.90
11501;DHT22;5807;51.606;7.624;2022-12-28T03:30:59;7.70;99.90
11501;DHT22;5807;51.606;7.624;2022-12-28T03:33:33;7.40;99.90
11501;DHT22;5807;51.606;7.624;2022-12-28T03:36:07;8.10;99.90
11501;DHT22;5807;51.606;7.624;2022-12-28T03:38:40;7.40;99.90
11501;DHT22;5807;51.606;7.624;2022-12-28T03:41:13;7.20;99.90
11501;DHT22;5807;51.606;7.624;2022-12-28T03:43:45;7.80;99.90
11501;DHT22;5807;51.606;7.624;2022-12-28T03:46:17;7.20;99.90
11501;DHT22;5807;51.606;7.624;2022-12-28T03:48:46;8.30;99.90
11501;DHT22;5807;51.606;7.624;2022-12-28T03:51:15;7.40;99.90
11501;DHT22;5807;51.606;7.624;2022-12-28T03:53:46;8.40;99.90
11501;DHT22;5807;51.606;7.624;2022-12-28T03:56:15;7.40;99.90
11501;DHT22;5807;51.606;7.624;2022-12-28T04:15:57;7.40;99.90
11501;DHT22;5807;51.606;7.624;2022-12-28T04:18:25;8.80;99.90
11501;DHT22;5807;51.606;7.624;2022-12-28T04:20:51;8.20;99.90
11501;DHT22;5807;51.606;7.624;2022-12-28T04:23:20;8.40;99.90
11501;DHT22;5807;51.606;7.624;2022-12-28T04:25:56;7.60;99.90
11501;DHT22;5807;51.606;7.624;2022-12-28T04:28:23;7.70;99.90
11501;DHT22;5807;51.606;7.624;2022-12-28T04:30:50;7.80;99.90
11501;DHT22;5807;51.606;7.624;2022-12-28T04:33:17;8.20;99.90
11501;DHT22;5807;51.606;7.624;2022-12-28T04:35:44;7.80;99.90
11501;DHT22;5807;51.606;7.624;2022-12-28T04:38:10;7.90;99.90
11501;DHT22;5807;51.606;7.624;2022-12-28T04:40:39;8.10;99.90
11501;DHT22;5807;51.606;7.624;2022-12-28T04:43:05;7.50;99.90
11501;DHT22;5807;51.606;7.624;2022-12-28T04:45:32;7.70;99.90
11501;DHT22;5807;51.606;7.624;2022-12-28T04:47:59;8.50;99.90
11501;DHT22;5807;51.606;7.624;2022-12-28T04:50:26;9.30;99.90
11501;DHT22;5807;51.606;7.624;2022-12-28T04:52:53;8.20;99.90
11501;DHT22;5807;51.606;7.624;2022-12-28T04:55:20;8.40;99.90
11501;DHT22;5807;51.606;7.624;2022-12-28T04:57:48;7.70;99.90
11501;DHT22;5807;51.606;7.624;2022-12-28T05:00:15;7.70;99.90
11501;DHT22;5807;51.606;7.624;2022-12-28T05:02:42;8.00;99.90
11501;DHT22;5807;51.606;7.624;2022-12-28T05:05:08;7.80;99.90
11501;DHT22;5807;51.606;7.624;2022-12-28T05:07:35;7.80;99.90
11501;DHT22;5807;51.606;7.624;2022-12-28T05:10:02;8.20;99.90
11501;DHT22;5807;51.606;7.624;2022-12-28T05:12:29;8.20;99.90
11501;DHT22;5807;51.606;7.624;2022-12-28T05:14:57;8.40;99.90
11501;DHT22;5807;51.606;7.624;2022-12-28T05:17:24;8.40;99.90
11501;DHT22;5807;51.606;7.624;2022-12-28T05:19:51;7.80;99.90
11501;DHT22;5807;51.606;7.624;2022-12-28T05:22:18;8.20;99.90
11501;DHT22;5807;51.606;7.624;2022-12-28T05:24:44;7.60;99.90
11501;DHT22;5807;51.606;7.624;2022-12-28T05:29:39;7.50;99.90
11501;DHT22;5807;51.606;7.624;2022-12-28T05:32:07;7.40;99.90
11501;DHT22;5807;51.606;7.624;2022-12-28T05:37:01;7.50;99.90
11501;DHT22;5807;51.606;7.624;2022-12-28T05:39:27;7.20;99.90
11501;DHT22;5807;51.606;7.624;2022-12-28T05:41:56;7.30;99.90
11501;DHT22;5807;51.606;7.624;2022-12-28T05:59:10;7.10;99.90
11501;DHT22;5807;51.606;7.624;2022-12-28T06:01:39;7.20;99.90
11501;DHT22;5807;51.606;7.624;2022-12-28T06:04:09;8.00;99.90
11501;DHT22;5807;51.606;7.624;2022-12-28T06:06:38;8.20;99.90
11501;DHT22;5807;51.606;7.624;2022-12-28T06:11:33;7.30;99.90
11501;DHT22;5807;51.606;7.624;2022-12-28T06:13:59;7.60;99.90
11501;DHT22;5807;51.606;7.624;2022-12-28T06:16:29;7.60;99.90
11501;DHT22;5807;51.606;7.624;2022-12-28T06:18:56;8.30;99.90
11501;DHT22;5807;51.606;7.624;2022-12-28T06:21:25;8.40;99.90
11501;DHT22;5807;51.606;7.624;2022-12-28T06:23:54;7.20;99.90
11501;DHT22;5807;51.606;7.624;2022-12-28T06:26:24;7.70;99.90
11501;DHT22;5807;51.606;7.624;2022-12-28T06:28:51;7.20;99.90
11501;DHT22;5807;51.606;7.624;2022-12-28T06:31:19;7.50;99.90
11501;DHT22;5807;51.606;7.624;2022-12-28T06:33:48;7.50;99.90
11501;DHT22;5807;51.606;7.624;2022-12-28T06:36:16;7.50;99.90
11501;DHT22;5807;51.606;7.624;2022-12-28T06:38:43;7.10;99.90
11501;DHT22;5807;51.606;7.624;2022-12-28T06:41:12;7.20;99.90
11501;DHT22;5807;51.606;7.624;2022-12-28T06:43:41;7.20;99.90
11501;DHT22;5807;51.606;7.624;2022-12-28T06:46:08;7.20;99.90
11501;DHT22;5807;51.606;7.624;2022-12-28T06:48:35;7.20;99.90
11501;DHT22;5807;51.606;7.624;2022-12-28T06:51:04;7.20;99.90
11501;DHT22;5807;51.606;7.624;2022-12-28T06:53:32;7.40;99.90
11501;DHT22;5807;51.606;7.624;2022-12-28T06:56:01;7.50;99.90
11501;DHT22;5807;51.606;7.624;2022-12-28T06:58:30;7.20;99.90
11501;DHT22;5807;51.606;7.624;2022-12-28T07:01:04;7.80;99.90
11501;DHT22;5807;51.606;7.624;2022-12-28T07:03:31;7.10;99.90
11501;DHT22;5807;51.606;7.624;2022-12-28T07:05:59;7.20;99.90
11501;DHT22;5807;51.606;7.624;2022-12-28T07:08:25;7.20;99.90
11501;DHT22;5807;51.606;7.624;2022-12-28T09:53:46;8.80;99.90
11501;DHT22;5807;51.606;7.624;2022-12-28T09:56:22;8.50;99.90
11501;DHT22;5807;51.606;7.624;2022-12-28T09:58:50;8.70;99.90
11501;DHT22;5807;51.606;7.624;2022-12-28T10:01:18;8.90;99.90
11501;DHT22;5807;51.606;7.624;2022-12-28T10:03:46;9.30;99.90
11501;DHT22;5807;51.606;7.624;2022-12-28T10:06:15;9.50;99.90
11501;DHT22;5807;51.606;7.624;2022-12-28T10:08:44;8.90;99.90
11501;DHT22;5807;51.606;7.624;2022-12-28T10:11:15;8.80;99.90
11501;DHT22;5807;51.606;7.624;2022-12-28T10:13:43;8.80;99.90
11501;DHT22;5807;51.606;7.624;2022-12-28T10:16:15;8.90;99.90
11501;DHT22;5807;51.606;7.624;2022-12-28T10:18:42;9.60;99.90
11501;DHT22;5807;51.606;7.624;2022-12-28T10:21:11;9.10;99.90
11501;DHT22;5807;51.606;7.624;2022-12-28T10:23:39;9.80;99.90
11501;DHT22;5807;51.606;7.624;2022-12-28T10:26:12;9.10;99.90
11501;DHT22;5807;51.606;7.624;2022-12-28T10:28:43;10.20;99.90
11501;DHT22;5807;51.606;7.624;2022-12-28T10:31:12;9.20;99.90
11501;DHT22;5807;51.606;7.624;2022-12-28T10:33:48;8.80;99.90
11501;DHT22;5807;51.606;7.624;2022-12-28T10:36:17;9.10;99.90
11501;DHT22;5807;51.606;7.624;2022-12-28T10:38:49;9.00;99.90
11501;DHT22;5807;51.606;7.624;2022-12-28T10:41:17;9.00;99.90
11501;DHT22;5807;51.606;7.624;2022-12-28T10:43:48;9.60;99.90
11501;DHT22;5807;51.606;7.624;2022-12-28T10:46:18;10.10;99.90
11501;DHT22;5807;51.606;7.624;2022-12-28T10:48:46;9.30;99.90
11501;DHT22;5807;51.606;7.624;2022-12-28T10:51:17;9.30;99.90
11501;DHT22;5807;51.606;7.624;2022-12-28T10:53:46;9.50;99.90
11501;DHT22;5807;51.606;7.624;2022-12-28T10:56:22;10.00;99.90
11501;DHT22;5807;51.606;7.624;2022-12-28T10:58:50;9.60;99.90
11501;DHT22;5807;51.606;7.624;2022-12-28T11:01:22;10.30;99.90
11501;DHT22;5807;51.606;7.624;2022-12-28T11:04:02;9.40;99.90
11501;DHT22;5807;51.606;7.624;2022-12-28T11:06:31;9.90;99.90
11501;DHT22;5807;51.606;7.624;2022-12-28T11:09:13;10.40;99.90
11501;DHT22;5807;51.606;7.624;2022-12-28T11:11:40;9.60;99.90
11501;DHT22;5807;51.606;7.624;2022-12-28T11:14:14;9.90;99.90
11501;DHT22;5807;51.606;7.624;2022-12-28T15:47:19;9.00;99.90
11501;DHT22;5807;51.606;7.624;2022-12-28T15:49:47;9.50;99.90
11501;DHT22;5807;51.606;7.624;2022-12-28T15:52:14;8.90;99.90
11501;DHT22;5807;51.606;7.624;2022-12-28T15:54:41;9.00;99.90
11501;DHT22;5807;51.606;7.624;2022-12-28T15:57:08;9.60;99.90
11501;DHT22;5807;51.606;7.624;2022-12-28T15:59:37;9.00;99.90
11501;DHT22;5807;51.606;7.624;2022-12-28T16:02:05;9.20;99.90
11501;DHT22;5807;51.606;7.624;2022-12-28T16:04:32;9.10;99.90
11501;DHT22;5807;51.606;7.624;2022-12-28T16:06:58;9.50;99.90
11501;DHT22;5807;51.606;7.624;2022-12-28T16:09:25;10.70;99.90
11501;DHT22;5807;51.606;7.624;2022-12-28T16:11:52;10.30;99.90
11501;DHT22;5807;51.606;7.624;2022-12-28T16:14:19;9.10;99.90
11501;DHT22;5807;51.606;7.624;2022-12-28T16:16:45;9.20;99.90
11501;DHT22;5807;51.606;7.624;2022-12-28T16:19:14;10.60;99.90
11501;DHT22;5807;51.606;7.624;2022-12-28T16:21:43;9.20;99.90
11501;DHT22;5807;51.606;7.624;2022-12-28T16:24:10;9.20;99.90
11501;DHT22;5807;51.606;7.624;2022-12-28T16:26:37;9.70;99.90
11501;DHT22;5807;51.606;7.624;2022-12-28T16:31:33;9.10;99.90
11501;DHT22;5807;51.606;7.624;2022-12-28T16:34:01;9.80;99.90
11501;DHT22;5807;51.606;7.624;2022-12-28T16:36:29;9.60;99.90
11501;DHT22;5807;51.606;7.624;2022-12-28T16:38:56;9.00;99.90
11501;DHT22;5807;51.606;7.624;2022-12-28T16:41:24;10.20;99.90
11501;DHT22;5807;51.606;7.624;2022-12-28T16:43:51;9.40;99.90
11501;DHT22;5807;51.606;7.624;2022-12-28T16:46:17;9.00;99.90
11501;DHT22;5807;51.606;7.624;2022-12-28T16:48:44;9.90;99.90
11501;DHT22;5807;51.606;7.624;2022-12-28T16:51:11;9.10;99.90
11501;DHT22;5807;51.606;7.624;2022-12-28T16:53:39;9.10;99.90
11501;DHT22;5807;51.606;7.624;2022-12-28T16:56:06;9.20;99.90
11501;DHT22;5807;51.606;7.624;2022-12-28T16:58:33;9.40;99.90
11501;DHT22;5807;51.606;7.624;2022-12-28T17:01:04;9.20;99.90
11501;DHT22;5807;51.606;7.624;2022-12-28T17:03:32;9.20;99.90
11501;DHT22;5807;51.606;7.624;2022-12-28T17:05:59;9.20;99.90
11501;DHT22;5807;51.606;7.624;2022-12-28T17:08:26;10.30;99.90
11501;DHT22;5807;51.606;7.624;2022-12-28T17:10:55;9.80;99.90
11501;DHT22;5807;51.606;7.624;2022-12-28T17:13:22;9.30;99.90
11501;DHT22;5807;51.606;7.624;2022-12-28T18:12:20;8.80;99.90
11501;DHT22;5807;51.606;7.624;2022-12-28T18:19:49;8.70;99.90
11501;DHT22;5807;51.606;7.624;2022-12-28T18:22:18;9.90;99.90
11501;DHT22;5807;51.606;7.624;2022-12-28T18:24:45;8.60;99.90
11501;DHT22;5807;51.606;7.624;2022-12-28T18:27:12;8.60;99.90
11501;DHT22;5807;51.606;7.624;2022-12-28T18:29:38;8.60;99.90
11501;DHT22;5807;51.606;7.624;2022-12-28T18:32:07;8.70;99.90
11501;DHT22;5807;51.606;7.624;2022-12-28T18:34:34;8.60;99.90
11501;DHT22;5807;51.606;7.624;2022-12-28T18:37:02;8.60;99.90
11501;DHT22;5807;51.606;7.624;2022-12-28T18:39:28;9.80;99.90
11501;DHT22;5807;51.606;7.624;2022-12-28T18:41:55;9.80;99.90
11501;DHT22;5807;51.606;7.624;2022-12-28T18:44:23;8.60;99.90
11501;DHT22;5807;51.606;7.624;2022-12-28T18:46:50;8.80;99.90
11501;DHT22;5807;51.606;7.624;2022-12-28T18:49:17;9.20;99.90
11501;DHT22;5807;51.606;7.624;2022-12-28T18:51:44;8.70;99.90
11501;DHT22;5807;51.606;7.624;2022-12-28T18:54:12;9.50;99.90
11501;DHT22;5807;51.606;7.624;2022-12-28T18:56:39;9.60;99.90
11501;DHT22;5807;51.606;7.624;2022-12-28T18:59:05;8.80;99.90
11501;DHT22;5807;51.606;7.624;2022-12-28T19:01:32;8.50;99.90
11501;DHT22;5807;51.606;7.624;2022-12-28T19:04:01;8.40;99.90
11501;DHT22;5807;51.606;7.624;2022-12-28T19:06:28;9.40;99.90
11501;DHT22;5807;51.606;7.624;2022-12-28T19:08:57;8.40;99.90
11501;DHT22;5807;51.606;7.624;2022-12-28T19:11:26;8.70;99.90
11501;DHT22;5807;51.606;7.624;2022-12-28T19:13:52;9.60;99.90
11501;DHT22;5807;51.606;7.624;2022-12-28T19:16:19;8.70;99.90
11501;DHT22;5807;51.606;7.624;2022-12-28T19:21:16;8.40;99.90
11501;DHT22;5807;51.606;7.624;2022-12-28T19:23:43;8.60;99.90
11501;DHT22;5807;51.606;7.624;2022-12-28T19:26:10;8.90;99.90
11501;DHT22;5807;51.606;7.624;2022-12-28T19:28:38;8.90;99.90
11501;DHT22;5807;51.606;7.624;2022-12-28T19:31:05;8.50;99.90
11501;DHT22;5807;51.606;7.624;2022-12-28T19:33:31;8.70;99.90
11501;DHT22;5807;51.606;7.624;2022-12-28T19:35:58;9.20;99.90
11501;DHT22;5807;51.606;7.624;2022-12-28T19:38:25;9.40;99.90
11501;DHT22;5807;51.606;7.624;2022-12-28T19:40:53;9.80;99.90
11501;DHT22;5807;51.606;7.624;2022-12-28T19:43:20;8.90;99.90
11501;DHT22;5807;51.606;7.624;2022-12-28T19:45:48;9.40;99.90
11501;DHT22;5807;51.606;7.624;2022-12-28T19:48:15;9.00;99.90
11501;DHT22;5807;51.606;7.624;2022-12-28T19:50:41;9.20;99.90
11501;DHT22;5807;51.606;7.624;2022-12-28T19:53:08;8.90;99.90
11501;DHT22;5807;51.606;7.624;2022-12-28T19:55:35;9.30;99.90
11501;DHT22;5807;51.606;7.624;2022-12-28T19:58:02;9.10;99.90
11501;DHT22;5807;51.606;7.624;2022-12-28T20:00:28;9.00;99.90
11501;DHT22;5807;51.606;7.624;2022-12-28T20:02:56;8.60;99.90
11501;DHT22;5807;51.606;7.624;2022-12-28T20:05:23;8.70;99.90
11501;DHT22;5807;51.606;7.624;2022-12-28T20:07:51;9.80;99.90
11501;DHT22;5807;51.606;7.624;2022-12-28T20:10:18;9.10;99.90
11501;DHT22;5807;51.606;7.624;2022-12-28T20:12:44;8.90;99.90
11501;DHT22;5807;51.606;7.624;2022-12-28T20:15:11;9.10;99.90
11501;DHT22;5807;51.606;7.624;2022-12-28T20:17:38;10.10;99.90
11501;DHT22;5807;51.606;7.624;2022-12-28T20:20:08;10.00;99.90
11501;DHT22;5807;51.606;7.624;2022-12-28T20:22:38;8.90;99.90
11501;DHT22;5807;51.606;7.624;2022-12-28T20:25:06;8.70;99.90
11501;DHT22;5807;51.606;7.624;2022-12-28T20:27:33;9.00;99.90
11501;DHT22;5807;51.606;7.624;2022-12-28T20:30:00;8.80;99.90
11501;DHT22;5807;51.606;7.624;2022-12-28T20:34:54;8.90;99.90
11501;DHT22;5807;51.606;7.624;2022-12-28T20:37:22;8.90;99.90
11501;DHT22;5807;51.606;7.624;2022-12-28T20:39:48;8.90;99.90
11501;DHT22;5807;51.606;7.624;2022-12-28T20:42:15;10.00;99.90
11501;DHT22;5807;51.606;7.624;2022-12-28T20:44:59;9.40;99.90
11501;DHT22;5807;51.606;7.624;2022-12-28T20:47:26;9.10;99.90
11501;DHT22;5807;51.606;7.624;2022-12-28T20:49:53;9.00;99.90
11501;DHT22;5807;51.606;7.624;2022-12-28T20:52:21;9.10;99.90
11501;DHT22;5807;51.606;7.624;2022-12-28T20:54:48;9.40;99.90
11501;DHT22;5807;51.606;7.624;2022-12-28T20:57:14;9.00;99.90
11501;DHT22;5807;51.606;7.624;2022-12-28T20:59:41;9.10;99.90
11501;DHT22;5807;51.606;7.624;2022-12-28T21:02:08;9.10;99.90
11501;DHT22;5807;51.606;7.624;2022-12-28T21:04:35;9.50;99.90
11501;DHT22;5807;51.606;7.624;2022-12-28T21:07:02;9.30;99.90
11501;DHT22;5807;51.606;7.624;2022-12-28T21:09:30;9.60;99.90
11501;DHT22;5807;51.606;7.624;2022-12-28T21:11:57;9.80;99.90
11501;DHT22;5807;51.606;7.624;2022-12-28T21:14:24;9.50;99.90
11501;DHT22;5807;51.606;7.624;2022-12-28T21:16:50;10.70;99.90
11501;DHT22;5807;51.606;7.624;2022-12-28T21:19:17;11.10;99.90
11501;DHT22;5807;51.606;7.624;2022-12-28T21:21:44;10.00;99.90
11501;DHT22;5807;51.606;7.624;2022-12-28T21:24:12;10.60;99.90
11501;DHT22;5807;51.606;7.624;2022-12-28T22:42:19;9.80;99.90
11501;DHT22;5807;51.606;7.624;2022-12-28T22:44:46;10.30;99.90
11501;DHT22;5807;51.606;7.624;2022-12-28T22:47:12;10.30;99.90
11501;DHT22;5807;51.606;7.624;2022-12-28T22:49:39;10.40;99.90
11501;DHT22;5807;51.606;7.624;2022-12-28T22:52:07;9.80;99.90
11501;DHT22;5807;51.606;7.624;2022-12-28T22:54:34;11.00;99.90
11501;DHT22;5807;51.606;7.624;2022-12-28T22:57:01;10.70;99.90
11501;DHT22;5807;51.606;7.624;2022-12-28T22:59:28;10.10;99.90
11501;DHT22;5807;51.606;7.624;2022-12-28T23:01:54;9.80;99.90
11501;DHT22;5807;51.606;7.624;2022-12-28T23:04:21;10.40;99.90
11501;DHT22;5807;51.606;7.624;2022-12-28T23:06:48;10.20;99.90
11501;DHT22;5807;51.606;7.624;2022-12-28T23:09:16;10.20;99.90
11501;DHT22;5807;51.606;7.624;2022-12-28T23:11:43;10.40;99.90
11501;DHT22;5807;51.606;7.624;2022-12-28T23:14:12;10.20;99.90
11501;DHT22;5807;51.606;7.624;2022-12-28T23:16:57;10.50;99.90
11501;DHT22;5807;51.606;7.624;2022-12-28T23:19:24;10.50;99.90
11501;DHT22;5807;51.606;7.624;2022-12-28T23:22:12;11.10;99.90
11501;DHT22;5807;51.606;7.624;2022-12-28T23:24:58;10.40;99.90
11501;DHT22;5807;51.606;7.624;2022-12-28T23:27:43;10.70;99.90
11501;DHT22;5807;51.606;7.624;2022-12-28T23:30:13;10.50;99.90
11501;DHT22;5807;51.606;7.624;2022-12-28T23:40:06;10.30;99.90
11501;DHT22;5807;51.606;7.624;2022-12-28T23:42:34;10.40;99.90
11501;DHT22;5807;51.606;7.624;2022-12-28T23:45:01;10.20;99.90
11501;DHT22;5807;51.606;7.624;2022-12-28T23:47:28;10.10;99.90
